sensor_id;sensor_type;location;lat;lon;timestamp;temperature;humidity
74336;DHT22;62755;-33.398;-70.572;2022-10-16T00:02:09;24.70;25.50
74336;DHT22;62755;-33.398;-70.572;2022-10-16T00:04:38;24.60;25.70
74336;DHT22;62755;-33.398;-70.572;2022-10-16T00:07:10;24.50;25.60
74336;DHT22;62755;-33.398;-70.572;2022-10-16T00:09:39;24.40;25.80
74336;DHT22;62755;-33.398;-70.572;2022-10-16T00:12:09;24.40;26.00
74336;DHT22;62755;-33.398;-70.572;2022-10-16T00:14:40;24.50;26.00
74336;DHT22;62755;-33.398;-70.572;2022-10-16T00:17:11;24.50;25.90
74336;DHT22;62755;-33.398;-70.572;2022-10-16T00:19:40;24.50;26.10
74336;DHT22;62755;-33.398;-70.572;2022-10-16T00:22:12;24.50;26.20
74336;DHT22;62755;-33.398;-70.572;2022-10-16T00:24:41;24.40;26.40
74336;DHT22;62755;-33.398;-70.572;2022-10-16T00:27:11;24.40;26.30
74336;DHT22;62755;-33.398;-70.572;2022-10-16T00:29:40;24.30;26.50
74336;DHT22;62755;-33.398;-70.572;2022-10-16T00:32:10;24.20;26.50
74336;DHT22;62755;-33.398;-70.572;2022-10-16T00:34:40;24.10;26.70
74336;DHT22;62755;-33.398;-70.572;2022-10-16T00:37:11;24.00;26.90
74336;DHT22;62755;-33.398;-70.572;2022-10-16T00:39:40;24.00;27.10
74336;DHT22;62755;-33.398;-70.572;2022-10-16T00:42:13;24.00;27.10
74336;DHT22;62755;-33.398;-70.572;2022-10-16T00:44:48;24.00;27.20
74336;DHT22;62755;-33.398;-70.572;2022-10-16T00:47:23;24.20;27.20
74336;DHT22;62755;-33.398;-70.572;2022-10-16T00:49:58;24.20;27.40
74336;DHT22;62755;-33.398;-70.572;2022-10-16T00:52:30;24.20;27.60
74336;DHT22;62755;-33.398;-70.572;2022-10-16T00:55:01;24.20;27.40
74336;DHT22;62755;-33.398;-70.572;2022-10-16T00:57:31;24.30;27.40
74336;DHT22;62755;-33.398;-70.572;2022-10-16T01:00:01;24.20;27.40
74336;DHT22;62755;-33.398;-70.572;2022-10-16T01:02:32;24.20;27.60
74336;DHT22;62755;-33.398;-70.572;2022-10-16T01:05:02;24.00;27.90
74336;DHT22;62755;-33.398;-70.572;2022-10-16T01:07:41;24.00;28.10
74336;DHT22;62755;-33.398;-70.572;2022-10-16T01:10:20;24.10;28.40
74336;DHT22;62755;-33.398;-70.572;2022-10-16T01:12:59;24.00;28.50
74336;DHT22;62755;-33.398;-70.572;2022-10-16T01:15:33;24.00;28.60
74336;DHT22;62755;-33.398;-70.572;2022-10-16T01:18:08;24.00;28.40
74336;DHT22;62755;-33.398;-70.572;2022-10-16T01:20:44;24.00;28.40
74336;DHT22;62755;-33.398;-70.572;2022-10-16T01:23:28;24.00;28.10
74336;DHT22;62755;-33.398;-70.572;2022-10-16T01:26:23;23.80;28.50
74336;DHT22;62755;-33.398;-70.572;2022-10-16T01:29:04;23.90;28.40
74336;DHT22;62755;-33.398;-70.572;2022-10-16T01:31:38;23.80;28.20
74336;DHT22;62755;-33.398;-70.572;2022-10-16T01:34:12;23.70;28.10
74336;DHT22;62755;-33.398;-70.572;2022-10-16T01:36:46;23.60;28.00
74336;DHT22;62755;-33.398;-70.572;2022-10-16T01:39:20;23.50;28.20
74336;DHT22;62755;-33.398;-70.572;2022-10-16T01:41:57;23.50;28.20
74336;DHT22;62755;-33.398;-70.572;2022-10-16T01:44:32;23.40;28.50
74336;DHT22;62755;-33.398;-70.572;2022-10-16T01:47:04;23.40;28.40
74336;DHT22;62755;-33.398;-70.572;2022-10-16T01:49:34;23.30;28.60
74336;DHT22;62755;-33.398;-70.572;2022-10-16T01:52:08;23.40;28.70
74336;DHT22;62755;-33.398;-70.572;2022-10-16T01:54:40;23.40;29.00
74336;DHT22;62755;-33.398;-70.572;2022-10-16T01:57:12;23.40;29.10
74336;DHT22;62755;-33.398;-70.572;2022-10-16T01:59:47;23.50;29.10
74336;DHT22;62755;-33.398;-70.572;2022-10-16T02:02:18;23.50;29.30
74336;DHT22;62755;-33.398;-70.572;2022-10-16T02:04:53;23.60;29.30
74336;DHT22;62755;-33.398;-70.572;2022-10-16T02:07:24;23.60;29.10
74336;DHT22;62755;-33.398;-70.572;2022-10-16T02:09:54;23.60;29.00
74336;DHT22;62755;-33.398;-70.572;2022-10-16T02:12:26;23.60;29.40
74336;DHT22;62755;-33.398;-70.572;2022-10-16T02:14:59;23.50;29.50
74336;DHT22;62755;-33.398;-70.572;2022-10-16T02:17:29;23.40;29.50
74336;DHT22;62755;-33.398;-70.572;2022-10-16T02:20:00;23.40;29.60
74336;DHT22;62755;-33.398;-70.572;2022-10-16T02:22:34;23.40;29.70
74336;DHT22;62755;-33.398;-70.572;2022-10-16T02:25:08;23.50;29.70
74336;DHT22;62755;-33.398;-70.572;2022-10-16T02:27:44;23.40;29.70
74336;DHT22;62755;-33.398;-70.572;2022-10-16T02:30:19;23.40;29.80
74336;DHT22;62755;-33.398;-70.572;2022-10-16T02:32:51;23.30;29.90
74336;DHT22;62755;-33.398;-70.572;2022-10-16T02:35:23;23.20;29.90
74336;DHT22;62755;-33.398;-70.572;2022-10-16T02:37:54;23.20;29.80
74336;DHT22;62755;-33.398;-70.572;2022-10-16T02:40:25;23.10;30.00
74336;DHT22;62755;-33.398;-70.572;2022-10-16T02:42:55;23.10;30.10
74336;DHT22;62755;-33.398;-70.572;2022-10-16T02:45:27;23.10;30.20
74336;DHT22;62755;-33.398;-70.572;2022-10-16T02:47:57;23.10;30.20
74336;DHT22;62755;-33.398;-70.572;2022-10-16T02:50:26;23.10;30.30
74336;DHT22;62755;-33.398;-70.572;2022-10-16T02:52:56;23.10;30.40
74336;DHT22;62755;-33.398;-70.572;2022-10-16T02:55:26;23.10;30.30
74336;DHT22;62755;-33.398;-70.572;2022-10-16T02:57:55;23.10;30.40
74336;DHT22;62755;-33.398;-70.572;2022-10-16T03:00:27;22.90;30.40
74336;DHT22;62755;-33.398;-70.572;2022-10-16T03:02:56;22.90;30.70
74336;DHT22;62755;-33.398;-70.572;2022-10-16T03:05:26;22.90;30.80
74336;DHT22;62755;-33.398;-70.572;2022-10-16T03:07:56;22.80;30.90
74336;DHT22;62755;-33.398;-70.572;2022-10-16T03:10:27;22.80;30.80
74336;DHT22;62755;-33.398;-70.572;2022-10-16T03:12:56;22.90;31.00
74336;DHT22;62755;-33.398;-70.572;2022-10-16T03:15:28;22.90;31.00
74336;DHT22;62755;-33.398;-70.572;2022-10-16T03:17:58;22.70;31.20
74336;DHT22;62755;-33.398;-70.572;2022-10-16T03:20:28;22.30;31.50
74336;DHT22;62755;-33.398;-70.572;2022-10-16T03:22:57;21.90;31.80
74336;DHT22;62755;-33.398;-70.572;2022-10-16T03:25:27;21.70;32.20
74336;DHT22;62755;-33.398;-70.572;2022-10-16T03:27:57;21.50;32.20
74336;DHT22;62755;-33.398;-70.572;2022-10-16T03:30:28;21.50;32.30
74336;DHT22;62755;-33.398;-70.572;2022-10-16T03:32:58;21.60;32.30
74336;DHT22;62755;-33.398;-70.572;2022-10-16T03:35:27;21.70;32.10
74336;DHT22;62755;-33.398;-70.572;2022-10-16T03:37:57;21.90;31.80
74336;DHT22;62755;-33.398;-70.572;2022-10-16T03:40:26;21.90;31.60
74336;DHT22;62755;-33.398;-70.572;2022-10-16T03:42:56;21.90;31.50
74336;DHT22;62755;-33.398;-70.572;2022-10-16T03:45:28;21.90;31.50
74336;DHT22;62755;-33.398;-70.572;2022-10-16T03:47:57;21.90;31.50
74336;DHT22;62755;-33.398;-70.572;2022-10-16T03:50:27;21.90;31.40
74336;DHT22;62755;-33.398;-70.572;2022-10-16T03:52:57;21.90;31.40
74336;DHT22;62755;-33.398;-70.572;2022-10-16T03:55:26;21.90;31.40
74336;DHT22;62755;-33.398;-70.572;2022-10-16T03:57:56;21.90;31.70
74336;DHT22;62755;-33.398;-70.572;2022-10-16T04:00:27;21.90;31.80
74336;DHT22;62755;-33.398;-70.572;2022-10-16T04:02:57;21.70;32.40
74336;DHT22;62755;-33.398;-70.572;2022-10-16T04:05:26;21.70;32.40
74336;DHT22;62755;-33.398;-70.572;2022-10-16T04:07:56;21.70;32.40
74336;DHT22;62755;-33.398;-70.572;2022-10-16T04:10:26;21.80;32.50
74336;DHT22;62755;-33.398;-70.572;2022-10-16T04:12:55;21.80;32.40
74336;DHT22;62755;-33.398;-70.572;2022-10-16T04:15:27;21.70;32.40
74336;DHT22;62755;-33.398;-70.572;2022-10-16T04:17:56;21.70;32.50
74336;DHT22;62755;-33.398;-70.572;2022-10-16T04:20:26;21.70;32.60
74336;DHT22;62755;-33.398;-70.572;2022-10-16T04:22:57;21.70;32.80
74336;DHT22;62755;-33.398;-70.572;2022-10-16T04:25:26;21.70;32.80
74336;DHT22;62755;-33.398;-70.572;2022-10-16T04:27:56;21.70;32.50
74336;DHT22;62755;-33.398;-70.572;2022-10-16T04:30:27;21.80;32.60
74336;DHT22;62755;-33.398;-70.572;2022-10-16T04:32:57;21.80;32.20
74336;DHT22;62755;-33.398;-70.572;2022-10-16T04:35:27;21.70;31.90
74336;DHT22;62755;-33.398;-70.572;2022-10-16T04:37:58;21.70;31.90
74336;DHT22;62755;-33.398;-70.572;2022-10-16T04:40:28;21.60;32.20
74336;DHT22;62755;-33.398;-70.572;2022-10-16T04:42:59;21.60;32.40
74336;DHT22;62755;-33.398;-70.572;2022-10-16T04:45:31;21.60;32.90
74336;DHT22;62755;-33.398;-70.572;2022-10-16T04:48:01;21.70;33.20
74336;DHT22;62755;-33.398;-70.572;2022-10-16T04:50:30;21.70;32.90
74336;DHT22;62755;-33.398;-70.572;2022-10-16T04:53:00;21.70;32.80
74336;DHT22;62755;-33.398;-70.572;2022-10-16T04:55:30;21.70;32.80
74336;DHT22;62755;-33.398;-70.572;2022-10-16T04:57:59;21.70;32.80
74336;DHT22;62755;-33.398;-70.572;2022-10-16T05:00:30;21.70;32.80
74336;DHT22;62755;-33.398;-70.572;2022-10-16T05:03:00;21.50;32.70
74336;DHT22;62755;-33.398;-70.572;2022-10-16T05:05:33;21.50;32.90
74336;DHT22;62755;-33.398;-70.572;2022-10-16T05:08:03;21.40;33.00
74336;DHT22;62755;-33.398;-70.572;2022-10-16T05:10:33;21.40;33.20
74336;DHT22;62755;-33.398;-70.572;2022-10-16T05:13:02;21.40;33.30
74336;DHT22;62755;-33.398;-70.572;2022-10-16T05:15:34;21.30;33.30
74336;DHT22;62755;-33.398;-70.572;2022-10-16T05:18:03;21.30;33.50
74336;DHT22;62755;-33.398;-70.572;2022-10-16T05:20:33;21.20;33.40
74336;DHT22;62755;-33.398;-70.572;2022-10-16T05:23:03;21.10;33.40
74336;DHT22;62755;-33.398;-70.572;2022-10-16T05:25:33;21.10;33.50
74336;DHT22;62755;-33.398;-70.572;2022-10-16T05:28:03;21.00;33.60
74336;DHT22;62755;-33.398;-70.572;2022-10-16T05:30:36;20.90;33.70
74336;DHT22;62755;-33.398;-70.572;2022-10-16T05:33:06;20.80;33.80
74336;DHT22;62755;-33.398;-70.572;2022-10-16T05:35:36;20.60;33.90
74336;DHT22;62755;-33.398;-70.572;2022-10-16T05:38:05;20.50;34.20
74336;DHT22;62755;-33.398;-70.572;2022-10-16T05:40:35;20.50;34.50
74336;DHT22;62755;-33.398;-70.572;2022-10-16T05:43:04;20.50;34.70
74336;DHT22;62755;-33.398;-70.572;2022-10-16T05:45:36;20.50;34.80
74336;DHT22;62755;-33.398;-70.572;2022-10-16T05:48:06;20.50;34.90
74336;DHT22;62755;-33.398;-70.572;2022-10-16T05:50:35;20.50;34.70
74336;DHT22;62755;-33.398;-70.572;2022-10-16T05:53:05;20.50;34.50
74336;DHT22;62755;-33.398;-70.572;2022-10-16T05:55:34;20.60;34.60
74336;DHT22;62755;-33.398;-70.572;2022-10-16T05:58:04;20.60;34.70
74336;DHT22;62755;-33.398;-70.572;2022-10-16T06:00:36;20.60;34.70
74336;DHT22;62755;-33.398;-70.572;2022-10-16T06:03:05;20.60;35.00
74336;DHT22;62755;-33.398;-70.572;2022-10-16T06:05:35;20.60;34.90
74336;DHT22;62755;-33.398;-70.572;2022-10-16T06:08:05;20.60;34.90
74336;DHT22;62755;-33.398;-70.572;2022-10-16T06:10:35;20.50;34.90
74336;DHT22;62755;-33.398;-70.572;2022-10-16T06:13:04;20.50;34.90
74336;DHT22;62755;-33.398;-70.572;2022-10-16T06:15:36;20.50;34.80
74336;DHT22;62755;-33.398;-70.572;2022-10-16T06:18:06;20.50;34.80
74336;DHT22;62755;-33.398;-70.572;2022-10-16T06:20:35;20.50;34.80
74336;DHT22;62755;-33.398;-70.572;2022-10-16T06:23:05;20.50;34.90
74336;DHT22;62755;-33.398;-70.572;2022-10-16T06:25:34;20.40;35.20
74336;DHT22;62755;-33.398;-70.572;2022-10-16T06:28:04;20.30;35.20
74336;DHT22;62755;-33.398;-70.572;2022-10-16T06:30:35;20.30;35.10
74336;DHT22;62755;-33.398;-70.572;2022-10-16T06:33:05;20.30;35.20
74336;DHT22;62755;-33.398;-70.572;2022-10-16T06:35:34;20.30;35.10
74336;DHT22;62755;-33.398;-70.572;2022-10-16T06:38:04;20.20;35.20
74336;DHT22;62755;-33.398;-70.572;2022-10-16T06:40:34;20.20;35.10
74336;DHT22;62755;-33.398;-70.572;2022-10-16T06:43:03;20.10;34.90
74336;DHT22;62755;-33.398;-70.572;2022-10-16T06:45:34;20.00;35.00
74336;DHT22;62755;-33.398;-70.572;2022-10-16T06:48:04;20.00;34.90
74336;DHT22;62755;-33.398;-70.572;2022-10-16T06:50:34;19.90;34.80
74336;DHT22;62755;-33.398;-70.572;2022-10-16T06:53:04;19.90;34.70
74336;DHT22;62755;-33.398;-70.572;2022-10-16T06:55:33;19.90;34.80
74336;DHT22;62755;-33.398;-70.572;2022-10-16T06:58:03;19.90;35.00
74336;DHT22;62755;-33.398;-70.572;2022-10-16T07:00:34;19.90;35.10
74336;DHT22;62755;-33.398;-70.572;2022-10-16T07:03:04;19.90;35.60
74336;DHT22;62755;-33.398;-70.572;2022-10-16T07:05:38;20.00;35.70
74336;DHT22;62755;-33.398;-70.572;2022-10-16T07:08:08;20.00;36.10
74336;DHT22;62755;-33.398;-70.572;2022-10-16T07:10:37;20.00;35.80
74336;DHT22;62755;-33.398;-70.572;2022-10-16T07:13:07;20.00;35.70
74336;DHT22;62755;-33.398;-70.572;2022-10-16T07:15:42;20.10;35.60
74336;DHT22;62755;-33.398;-70.572;2022-10-16T07:18:11;20.00;35.50
74336;DHT22;62755;-33.398;-70.572;2022-10-16T07:20:41;20.00;35.40
74336;DHT22;62755;-33.398;-70.572;2022-10-16T07:23:10;19.90;35.50
74336;DHT22;62755;-33.398;-70.572;2022-10-16T07:25:40;19.70;35.50
74336;DHT22;62755;-33.398;-70.572;2022-10-16T07:28:10;19.40;35.90
74336;DHT22;62755;-33.398;-70.572;2022-10-16T07:30:41;19.30;36.10
74336;DHT22;62755;-33.398;-70.572;2022-10-16T07:33:11;19.40;36.10
74336;DHT22;62755;-33.398;-70.572;2022-10-16T07:35:49;19.40;36.10
74336;DHT22;62755;-33.398;-70.572;2022-10-16T07:38:18;19.40;36.10
74336;DHT22;62755;-33.398;-70.572;2022-10-16T07:40:55;19.50;35.80
74336;DHT22;62755;-33.398;-70.572;2022-10-16T07:43:24;19.50;35.70
74336;DHT22;62755;-33.398;-70.572;2022-10-16T07:45:56;19.60;35.40
74336;DHT22;62755;-33.398;-70.572;2022-10-16T07:48:28;19.70;35.50
74336;DHT22;62755;-33.398;-70.572;2022-10-16T07:50:58;19.60;35.70
74336;DHT22;62755;-33.398;-70.572;2022-10-16T07:53:28;19.50;35.70
74336;DHT22;62755;-33.398;-70.572;2022-10-16T07:55:59;19.50;35.80
74336;DHT22;62755;-33.398;-70.572;2022-10-16T07:58:29;19.50;35.90
74336;DHT22;62755;-33.398;-70.572;2022-10-16T08:01:04;19.50;36.00
74336;DHT22;62755;-33.398;-70.572;2022-10-16T08:03:34;19.50;36.20
74336;DHT22;62755;-33.398;-70.572;2022-10-16T08:06:04;19.50;36.10
74336;DHT22;62755;-33.398;-70.572;2022-10-16T08:08:35;19.50;36.20
74336;DHT22;62755;-33.398;-70.572;2022-10-16T08:11:05;19.60;36.30
74336;DHT22;62755;-33.398;-70.572;2022-10-16T08:13:34;19.70;36.10
74336;DHT22;62755;-33.398;-70.572;2022-10-16T08:16:06;19.60;36.30
74336;DHT22;62755;-33.398;-70.572;2022-10-16T08:18:37;19.50;36.30
74336;DHT22;62755;-33.398;-70.572;2022-10-16T08:21:08;19.60;36.40
74336;DHT22;62755;-33.398;-70.572;2022-10-16T08:23:41;19.70;36.50
74336;DHT22;62755;-33.398;-70.572;2022-10-16T08:26:11;19.70;36.30
74336;DHT22;62755;-33.398;-70.572;2022-10-16T08:28:41;19.70;36.20
74336;DHT22;62755;-33.398;-70.572;2022-10-16T08:31:14;19.70;36.30
74336;DHT22;62755;-33.398;-70.572;2022-10-16T08:33:44;19.70;36.50
74336;DHT22;62755;-33.398;-70.572;2022-10-16T08:36:15;19.80;36.30
74336;DHT22;62755;-33.398;-70.572;2022-10-16T08:38:48;19.90;36.30
74336;DHT22;62755;-33.398;-70.572;2022-10-16T08:44:36;19.90;36.20
74336;DHT22;62755;-33.398;-70.572;2022-10-16T08:47:18;19.90;36.10
74336;DHT22;62755;-33.398;-70.572;2022-10-16T08:49:56;19.90;36.10
74336;DHT22;62755;-33.398;-70.572;2022-10-16T08:52:30;19.90;36.30
74336;DHT22;62755;-33.398;-70.572;2022-10-16T08:55:03;19.80;36.10
74336;DHT22;62755;-33.398;-70.572;2022-10-16T08:57:33;19.70;35.80
74336;DHT22;62755;-33.398;-70.572;2022-10-16T09:00:13;19.50;35.90
74336;DHT22;62755;-33.398;-70.572;2022-10-16T09:02:50;19.50;36.20
74336;DHT22;62755;-33.398;-70.572;2022-10-16T09:05:34;19.30;36.20
74336;DHT22;62755;-33.398;-70.572;2022-10-16T09:08:11;19.00;36.80
74336;DHT22;62755;-33.398;-70.572;2022-10-16T09:10:49;19.00;36.90
74336;DHT22;62755;-33.398;-70.572;2022-10-16T09:13:28;19.00;36.90
74336;DHT22;62755;-33.398;-70.572;2022-10-16T09:16:08;19.10;37.00
74336;DHT22;62755;-33.398;-70.572;2022-10-16T09:18:44;19.10;37.00
74336;DHT22;62755;-33.398;-70.572;2022-10-16T09:21:18;19.20;36.90
74336;DHT22;62755;-33.398;-70.572;2022-10-16T09:23:48;19.20;36.80
74336;DHT22;62755;-33.398;-70.572;2022-10-16T09:26:18;19.20;36.80
74336;DHT22;62755;-33.398;-70.572;2022-10-16T09:28:49;19.30;36.90
74336;DHT22;62755;-33.398;-70.572;2022-10-16T09:31:21;19.30;36.70
74336;DHT22;62755;-33.398;-70.572;2022-10-16T09:33:55;19.30;36.60
74336;DHT22;62755;-33.398;-70.572;2022-10-16T09:36:26;19.30;36.50
74336;DHT22;62755;-33.398;-70.572;2022-10-16T09:39:04;19.20;36.50
74336;DHT22;62755;-33.398;-70.572;2022-10-16T09:41:36;19.20;36.60
74336;DHT22;62755;-33.398;-70.572;2022-10-16T09:44:14;19.20;36.50
74336;DHT22;62755;-33.398;-70.572;2022-10-16T09:46:46;19.10;36.40
74336;DHT22;62755;-33.398;-70.572;2022-10-16T09:49:24;19.10;36.30
74336;DHT22;62755;-33.398;-70.572;2022-10-16T09:52:04;19.10;36.50
74336;DHT22;62755;-33.398;-70.572;2022-10-16T09:54:34;19.10;36.60
74336;DHT22;62755;-33.398;-70.572;2022-10-16T09:57:07;19.00;36.50
74336;DHT22;62755;-33.398;-70.572;2022-10-16T09:59:47;19.00;36.80
74336;DHT22;62755;-33.398;-70.572;2022-10-16T10:02:18;18.90;37.00
74336;DHT22;62755;-33.398;-70.572;2022-10-16T10:04:53;18.90;36.90
74336;DHT22;62755;-33.398;-70.572;2022-10-16T10:07:26;18.90;37.10
74336;DHT22;62755;-33.398;-70.572;2022-10-16T10:09:57;18.90;37.00
74336;DHT22;62755;-33.398;-70.572;2022-10-16T10:12:27;18.90;37.00
74336;DHT22;62755;-33.398;-70.572;2022-10-16T10:15:04;18.90;36.90
74336;DHT22;62755;-33.398;-70.572;2022-10-16T10:17:46;18.80;37.10
74336;DHT22;62755;-33.398;-70.572;2022-10-16T10:20:26;18.80;37.30
74336;DHT22;62755;-33.398;-70.572;2022-10-16T10:22:56;18.70;37.30
74336;DHT22;62755;-33.398;-70.572;2022-10-16T10:25:49;18.70;37.10
74336;DHT22;62755;-33.398;-70.572;2022-10-16T10:28:49;18.70;37.40
74336;DHT22;62755;-33.398;-70.572;2022-10-16T10:31:27;18.70;37.30
74336;DHT22;62755;-33.398;-70.572;2022-10-16T10:34:04;18.70;37.10
74336;DHT22;62755;-33.398;-70.572;2022-10-16T10:36:40;18.70;37.40
74336;DHT22;62755;-33.398;-70.572;2022-10-16T10:39:14;18.70;37.30
74336;DHT22;62755;-33.398;-70.572;2022-10-16T10:42:08;18.80;37.30
74336;DHT22;62755;-33.398;-70.572;2022-10-16T10:47:46;19.00;37.80
74336;DHT22;62755;-33.398;-70.572;2022-10-16T10:50:22;19.00;37.80
74336;DHT22;62755;-33.398;-70.572;2022-10-16T10:53:07;19.10;37.60
74336;DHT22;62755;-33.398;-70.572;2022-10-16T10:55:43;19.20;37.80
74336;DHT22;62755;-33.398;-70.572;2022-10-16T10:58:27;19.20;37.40
74336;DHT22;62755;-33.398;-70.572;2022-10-16T11:01:01;19.10;37.50
74336;DHT22;62755;-33.398;-70.572;2022-10-16T11:03:57;19.10;37.30
74336;DHT22;62755;-33.398;-70.572;2022-10-16T11:06:30;19.10;37.30
74336;DHT22;62755;-33.398;-70.572;2022-10-16T11:09:09;19.10;37.50
74336;DHT22;62755;-33.398;-70.572;2022-10-16T11:11:43;19.20;37.70
74336;DHT22;62755;-33.398;-70.572;2022-10-16T11:14:17;19.30;37.30
74336;DHT22;62755;-33.398;-70.572;2022-10-16T11:16:51;19.30;37.30
74336;DHT22;62755;-33.398;-70.572;2022-10-16T11:19:31;19.30;37.50
74336;DHT22;62755;-33.398;-70.572;2022-10-16T11:22:09;19.40;37.60
74336;DHT22;62755;-33.398;-70.572;2022-10-16T11:24:46;19.50;37.60
74336;DHT22;62755;-33.398;-70.572;2022-10-16T11:27:21;19.50;37.70
74336;DHT22;62755;-33.398;-70.572;2022-10-16T11:29:55;19.50;37.70
74336;DHT22;62755;-33.398;-70.572;2022-10-16T11:32:31;19.50;37.50
74336;DHT22;62755;-33.398;-70.572;2022-10-16T11:35:05;19.40;37.70
74336;DHT22;62755;-33.398;-70.572;2022-10-16T11:37:41;19.40;37.90
74336;DHT22;62755;-33.398;-70.572;2022-10-16T11:40:22;19.40;37.80
74336;DHT22;62755;-33.398;-70.572;2022-10-16T11:42:57;19.50;37.90
74336;DHT22;62755;-33.398;-70.572;2022-10-16T11:45:33;19.40;38.10
74336;DHT22;62755;-33.398;-70.572;2022-10-16T11:48:12;19.50;38.10
74336;DHT22;62755;-33.398;-70.572;2022-10-16T11:50:48;19.40;37.70
74336;DHT22;62755;-33.398;-70.572;2022-10-16T11:53:24;19.40;37.60
74336;DHT22;62755;-33.398;-70.572;2022-10-16T11:56:01;19.40;37.70
74336;DHT22;62755;-33.398;-70.572;2022-10-16T11:58:33;19.50;37.50
74336;DHT22;62755;-33.398;-70.572;2022-10-16T12:01:16;19.60;37.50
74336;DHT22;62755;-33.398;-70.572;2022-10-16T12:03:53;19.70;37.20
74336;DHT22;62755;-33.398;-70.572;2022-10-16T12:06:32;19.90;37.10
74336;DHT22;62755;-33.398;-70.572;2022-10-16T12:09:04;19.80;36.70
74336;DHT22;62755;-33.398;-70.572;2022-10-16T12:11:38;19.70;36.80
74336;DHT22;62755;-33.398;-70.572;2022-10-16T12:14:19;19.70;37.00
74336;DHT22;62755;-33.398;-70.572;2022-10-16T12:16:54;19.70;37.00
74336;DHT22;62755;-33.398;-70.572;2022-10-16T12:19:26;19.70;37.10
74336;DHT22;62755;-33.398;-70.572;2022-10-16T12:21:58;19.80;37.10
74336;DHT22;62755;-33.398;-70.572;2022-10-16T12:24:38;19.90;36.90
74336;DHT22;62755;-33.398;-70.572;2022-10-16T12:27:23;20.00;36.90
74336;DHT22;62755;-33.398;-70.572;2022-10-16T12:29:57;20.10;37.00
74336;DHT22;62755;-33.398;-70.572;2022-10-16T12:32:31;20.10;36.70
74336;DHT22;62755;-33.398;-70.572;2022-10-16T12:35:02;20.30;36.80
74336;DHT22;62755;-33.398;-70.572;2022-10-16T12:37:34;20.30;36.50
74336;DHT22;62755;-33.398;-70.572;2022-10-16T12:40:13;20.30;36.50
74336;DHT22;62755;-33.398;-70.572;2022-10-16T12:42:45;20.30;36.50
74336;DHT22;62755;-33.398;-70.572;2022-10-16T12:45:28;20.40;36.40
74336;DHT22;62755;-33.398;-70.572;2022-10-16T12:48:00;20.50;36.20
74336;DHT22;62755;-33.398;-70.572;2022-10-16T12:50:35;20.50;36.30
74336;DHT22;62755;-33.398;-70.572;2022-10-16T12:53:18;20.50;36.30
74336;DHT22;62755;-33.398;-70.572;2022-10-16T12:55:56;20.50;36.50
74336;DHT22;62755;-33.398;-70.572;2022-10-16T12:58:39;20.50;36.50
74336;DHT22;62755;-33.398;-70.572;2022-10-16T13:01:21;20.40;36.70
74336;DHT22;62755;-33.398;-70.572;2022-10-16T13:07:29;20.60;36.30
74336;DHT22;62755;-33.398;-70.572;2022-10-16T13:10:10;20.70;35.90
74336;DHT22;62755;-33.398;-70.572;2022-10-16T13:13:15;20.80;35.90
74336;DHT22;62755;-33.398;-70.572;2022-10-16T13:15:58;20.80;35.90
74336;DHT22;62755;-33.398;-70.572;2022-10-16T13:18:41;20.90;36.00
74336;DHT22;62755;-33.398;-70.572;2022-10-16T13:21:25;21.00;35.90
74336;DHT22;62755;-33.398;-70.572;2022-10-16T13:24:02;21.00;35.80
74336;DHT22;62755;-33.398;-70.572;2022-10-16T13:26:44;21.00;35.80
74336;DHT22;62755;-33.398;-70.572;2022-10-16T13:29:15;21.10;35.50
74336;DHT22;62755;-33.398;-70.572;2022-10-16T13:31:47;21.10;35.50
74336;DHT22;62755;-33.398;-70.572;2022-10-16T13:34:19;21.10;35.50
74336;DHT22;62755;-33.398;-70.572;2022-10-16T13:36:51;21.10;35.60
74336;DHT22;62755;-33.398;-70.572;2022-10-16T13:39:23;21.10;35.10
74336;DHT22;62755;-33.398;-70.572;2022-10-16T13:42:02;21.10;35.10
74336;DHT22;62755;-33.398;-70.572;2022-10-16T13:44:36;21.10;35.30
74336;DHT22;62755;-33.398;-70.572;2022-10-16T13:47:17;21.10;35.40
74336;DHT22;62755;-33.398;-70.572;2022-10-16T13:49:58;21.20;35.60
74336;DHT22;62755;-33.398;-70.572;2022-10-16T13:52:28;21.30;35.50
74336;DHT22;62755;-33.398;-70.572;2022-10-16T13:54:57;21.30;35.50
74336;DHT22;62755;-33.398;-70.572;2022-10-16T13:57:27;21.30;35.70
74336;DHT22;62755;-33.398;-70.572;2022-10-16T13:59:57;21.40;35.80
74336;DHT22;62755;-33.398;-70.572;2022-10-16T14:02:32;21.40;35.70
74336;DHT22;62755;-33.398;-70.572;2022-10-16T14:05:07;21.50;35.80
74336;DHT22;62755;-33.398;-70.572;2022-10-16T14:07:38;21.50;35.60
74336;DHT22;62755;-33.398;-70.572;2022-10-16T14:10:20;21.50;35.40
74336;DHT22;62755;-33.398;-70.572;2022-10-16T14:12:56;21.60;35.50
74336;DHT22;62755;-33.398;-70.572;2022-10-16T14:15:27;21.50;35.60
74336;DHT22;62755;-33.398;-70.572;2022-10-16T14:18:00;21.70;35.20
74336;DHT22;62755;-33.398;-70.572;2022-10-16T14:20:32;21.70;34.90
74336;DHT22;62755;-33.398;-70.572;2022-10-16T14:23:03;21.70;34.80
74336;DHT22;62755;-33.398;-70.572;2022-10-16T14:25:33;21.70;35.00
74336;DHT22;62755;-33.398;-70.572;2022-10-16T14:28:13;21.80;35.00
74336;DHT22;62755;-33.398;-70.572;2022-10-16T14:30:52;21.90;35.20
74336;DHT22;62755;-33.398;-70.572;2022-10-16T14:33:31;21.90;35.10
74336;DHT22;62755;-33.398;-70.572;2022-10-16T14:36:03;21.90;35.00
74336;DHT22;62755;-33.398;-70.572;2022-10-16T14:38:34;22.00;35.00
74336;DHT22;62755;-33.398;-70.572;2022-10-16T14:41:04;22.10;34.70
74336;DHT22;62755;-33.398;-70.572;2022-10-16T14:43:36;22.10;34.70
74336;DHT22;62755;-33.398;-70.572;2022-10-16T14:46:11;22.20;34.60
74336;DHT22;62755;-33.398;-70.572;2022-10-16T14:48:45;22.20;34.00
74336;DHT22;62755;-33.398;-70.572;2022-10-16T14:51:16;22.10;34.00
74336;DHT22;62755;-33.398;-70.572;2022-10-16T14:53:46;22.10;34.20
74336;DHT22;62755;-33.398;-70.572;2022-10-16T14:56:17;22.20;34.30
74336;DHT22;62755;-33.398;-70.572;2022-10-16T14:58:48;22.30;34.20
74336;DHT22;62755;-33.398;-70.572;2022-10-16T15:01:19;22.50;34.30
74336;DHT22;62755;-33.398;-70.572;2022-10-16T15:03:50;22.50;33.80
74336;DHT22;62755;-33.398;-70.572;2022-10-16T15:06:22;22.60;33.60
74336;DHT22;62755;-33.398;-70.572;2022-10-16T15:08:51;22.60;33.50
74336;DHT22;62755;-33.398;-70.572;2022-10-16T15:11:21;22.70;33.60
74336;DHT22;62755;-33.398;-70.572;2022-10-16T15:13:51;22.70;33.30
74336;DHT22;62755;-33.398;-70.572;2022-10-16T15:16:20;22.80;33.30
74336;DHT22;62755;-33.398;-70.572;2022-10-16T15:18:52;22.90;33.10
74336;DHT22;62755;-33.398;-70.572;2022-10-16T15:21:29;22.90;33.00
74336;DHT22;62755;-33.398;-70.572;2022-10-16T15:23:59;23.00;32.90
74336;DHT22;62755;-33.398;-70.572;2022-10-16T15:26:30;23.10;33.00
74336;DHT22;62755;-33.398;-70.572;2022-10-16T15:29:00;23.20;33.00
74336;DHT22;62755;-33.398;-70.572;2022-10-16T15:31:29;23.40;32.80
74336;DHT22;62755;-33.398;-70.572;2022-10-16T15:34:00;23.50;32.70